Time;durP1;ratioP1;P1;durP2;ratioP2;P2;SDS_P1;SDS_P2;PMS_P1;PMS_P2;Temp;Humidity;BMP_temperature;BMP_pressure;BME280_temperature;BME280_humidity;BME280_pressure;Samples;Min_cycle;Max_cycle;Signal;HPM_P1;HPM_P2
2021/11/29 00:00:55;;;;;;;6.77;6.17;;;3.00;99.90;;;;;;5092402;28;20214;-87
2021/11/29 00:03:21;;;;;;;6.50;6.00;;;3.00;99.90;;;;;;5093707;28;20636;-88
2021/11/29 00:05:47;;;;;;;7.47;6.60;;;2.90;99.90;;;;;;5089816;28;20272;-87
2021/11/29 00:08:13;;;;;;;6.43;5.83;;;2.70;99.90;;;;;;5095807;28;20202;-88
2021/11/29 00:10:40;;;;;;;7.93;6.17;;;2.70;99.90;;;;;;5094906;28;20283;-87
2021/11/29 00:13:06;;;;;;;6.37;5.60;;;2.70;99.90;;;;;;5092423;28;20195;-87
2021/11/29 00:15:32;;;;;;;6.20;5.60;;;2.80;99.90;;;;;;5093581;28;20187;-87
2021/11/29 00:17:59;;;;;;;6.40;5.80;;;2.90;99.90;;;;;;5097284;28;20201;-87
2021/11/29 00:20:24;;;;;;;6.70;6.03;;;3.00;99.90;;;;;;5092188;28;20219;-87
2021/11/29 00:22:50;;;;;;;7.07;6.40;;;2.90;99.90;;;;;;5093636;28;20195;-87
2021/11/29 00:25:16;;;;;;;7.03;5.67;;;2.80;99.90;;;;;;5076406;28;20190;-87
2021/11/29 00:27:42;;;;;;;6.33;5.63;;;2.90;99.90;;;;;;5077456;28;20193;-87
2021/11/29 00:30:11;;;;;;;6.43;5.77;;;3.00;99.90;;;;;;5097517;28;20230;-87
2021/11/29 00:32:38;;;;;;;6.20;5.60;;;3.00;99.90;;;;;;5072552;28;20226;-87
2021/11/29 00:35:05;;;;;;;6.63;5.60;;;3.00;99.90;;;;;;5094194;28;20674;-88
2021/11/29 00:37:31;;;;;;;5.83;5.33;;;3.00;99.90;;;;;;5092808;28;20673;-87
2021/11/29 00:39:57;;;;;;;6.13;5.53;;;3.10;99.90;;;;;;5093185;28;20202;-87
2021/11/29 00:42:23;;;;;;;5.73;5.23;;;3.20;99.90;;;;;;5095869;28;20564;-87
2021/11/29 00:44:48;;;;;;;6.00;5.50;;;3.20;99.90;;;;;;5089068;28;20205;-87
2021/11/29 00:47:14;;;;;;;6.33;5.70;;;3.20;99.90;;;;;;5090989;28;20286;-87
2021/11/29 00:49:41;;;;;;;6.07;5.40;;;3.20;99.90;;;;;;5093458;28;20225;-87
2021/11/29 00:52:07;;;;;;;6.43;5.83;;;3.20;99.90;;;;;;5088573;28;20214;-87
2021/11/29 00:54:33;;;;;;;5.67;5.17;;;3.20;99.20;;;;;;5089022;28;20205;-87
2021/11/29 00:56:58;;;;;;;5.70;5.20;;;3.30;99.90;;;;;;5114425;28;20247;-88
2021/11/29 00:59:24;;;;;;;7.07;6.17;;;3.40;99.20;;;;;;5100344;28;20274;-87
2021/11/29 01:01:50;;;;;;;6.40;5.80;;;3.30;98.70;;;;;;5092784;28;20242;-87
2021/11/29 01:04:15;;;;;;;6.43;5.33;;;3.40;99.30;;;;;;5112949;28;20186;-87
2021/11/29 01:06:41;;;;;;;5.83;5.23;;;3.50;98.60;;;;;;5101819;28;20202;-87
2021/11/29 01:09:06;;;;;;;6.30;5.77;;;3.30;98.40;;;;;;5092149;28;20194;-87
2021/11/29 01:11:32;;;;;;;6.00;5.50;;;3.40;98.20;;;;;;5087602;28;20349;-87
2021/11/29 01:13:58;;;;;;;6.13;5.63;;;3.50;98.30;;;;;;5091765;28;20187;-87
2021/11/29 01:16:24;;;;;;;5.57;5.00;;;3.50;98.10;;;;;;5084485;28;20302;-87
2021/11/29 01:18:50;;;;;;;6.37;5.77;;;3.60;97.70;;;;;;5088513;28;20759;-88
2021/11/29 01:21:17;;;;;;;6.13;5.53;;;3.50;97.40;;;;;;5089906;28;20242;-87
2021/11/29 01:23:43;;;;;;;6.27;5.77;;;3.40;98.80;;;;;;5087406;28;20206;-87
2021/11/29 01:26:10;;;;;;;5.90;5.40;;;3.30;98.30;;;;;;5071482;28;20305;-87
2021/11/29 01:28:37;;;;;;;5.83;5.33;;;3.30;98.50;;;;;;5091549;28;20250;-87
2021/11/29 01:31:04;;;;;;;6.03;5.53;;;3.30;98.70;;;;;;5073094;28;20222;-87
2021/11/29 01:33:30;;;;;;;5.70;5.20;;;3.40;98.30;;;;;;5085417;28;20228;-87
2021/11/29 01:35:55;;;;;;;5.97;5.47;;;3.30;97.90;;;;;;5091329;28;20183;-87
2021/11/29 01:38:21;;;;;;;6.47;5.87;;;3.40;98.30;;;;;;5092488;28;20232;-87
2021/11/29 01:40:48;;;;;;;6.27;5.67;;;3.40;96.80;;;;;;5088872;28;20227;-87
2021/11/29 01:43:17;;;;;;;7.17;6.47;;;3.30;96.40;;;;;;5086563;28;20211;-87
2021/11/29 01:45:51;;;;;;;6.63;6.10;;;3.40;96.80;;;;;;5074889;28;20187;-87
2021/11/29 01:48:17;;;;;;;7.60;6.90;;;3.30;96.50;;;;;;5092334;28;20197;-87
2021/11/29 01:50:48;;;;;;;8.00;6.00;;;3.10;97.40;;;;;;5089799;28;20222;-87
2021/11/29 01:53:14;;;;;;;7.13;6.50;;;3.00;98.60;;;;;;5072184;28;20365;-87
2021/11/29 01:55:43;;;;;;;6.50;5.90;;;3.00;98.40;;;;;;5090810;28;20179;-87
2021/11/29 01:58:09;;;;;;;7.53;6.83;;;3.10;98.90;;;;;;5089995;28;20649;-87
2021/11/29 02:00:41;;;;;;;7.60;6.90;;;3.00;97.90;;;;;;5092284;28;20217;-87
2021/11/29 02:03:07;;;;;;;7.63;6.73;;;2.90;98.50;;;;;;5092909;28;20179;-87
2021/11/29 02:05:33;;;;;;;7.50;6.80;;;2.80;99.30;;;;;;5090007;28;20233;-87
2021/11/29 02:08:00;;;;;;;6.80;6.20;;;2.80;99.50;;;;;;5092126;28;20183;-87
2021/11/29 02:10:26;;;;;;;7.90;6.77;;;3.00;99.00;;;;;;5091295;28;20290;-87
2021/11/29 02:12:53;;;;;;;7.33;6.53;;;3.00;98.30;;;;;;5089397;28;20198;-87
2021/11/29 02:15:19;;;;;;;8.67;7.67;;;2.90;98.60;;;;;;5070879;28;20750;-87
2021/11/29 02:17:46;;;;;;;8.17;7.37;;;3.00;98.40;;;;;;5092558;28;20171;-87
2021/11/29 02:20:14;;;;;;;8.50;7.50;;;2.80;99.20;;;;;;5087517;28;20211;-87
2021/11/29 02:22:40;;;;;;;8.50;7.77;;;2.70;99.90;;;;;;5090610;28;20828;-87
2021/11/29 02:25:07;;;;;;;8.57;7.77;;;2.70;99.90;;;;;;5091714;28;20687;-87
2021/11/29 02:27:35;;;;;;;9.40;8.50;;;2.60;99.90;;;;;;5091682;28;20179;-87
2021/11/29 02:30:01;;;;;;;9.40;8.50;;;2.60;99.90;;;;;;5086081;28;20350;-87
2021/11/29 02:32:27;;;;;;;10.17;9.07;;;2.50;99.90;;;;;;5071493;28;20207;-87
2021/11/29 02:34:52;;;;;;;8.37;7.57;;;2.40;99.90;;;;;;5090182;28;21006;-87
2021/11/29 02:37:18;;;;;;;9.23;8.33;;;2.60;99.90;;;;;;5090679;28;20195;-87
2021/11/29 02:39:44;;;;;;;10.03;8.63;;;2.70;99.90;;;;;;5089196;28;20186;-87
2021/11/29 02:42:12;;;;;;;9.20;8.03;;;2.90;99.60;;;;;;5090493;28;20282;-87
2021/11/29 02:44:39;;;;;;;10.70;9.60;;;3.00;99.80;;;;;;5096893;28;20186;-87
2021/11/29 02:47:06;;;;;;;9.70;8.70;;;2.90;98.80;;;;;;5096550;28;20863;-87
2021/11/29 02:49:32;;;;;;;9.77;8.87;;;2.80;99.60;;;;;;5099372;28;20224;-86
2021/11/29 02:52:03;;;;;;;10.10;8.60;;;3.00;98.20;;;;;;5102873;28;20701;-86
2021/11/29 02:54:31;;;;;;;9.77;8.87;;;3.00;98.90;;;;;;5097634;28;20195;-86
2021/11/29 02:57:01;;;;;;;9.47;8.50;;;3.10;97.90;;;;;;5100085;28;20400;-86
2021/11/29 02:59:32;;;;;;;10.40;9.40;;;3.20;97.10;;;;;;5082931;28;20505;-86
2021/11/29 03:02:00;;;;;;;9.93;8.87;;;3.10;97.60;;;;;;5100779;28;20719;-86
2021/11/29 03:04:29;;;;;;;11.23;10.00;;;3.00;98.80;;;;;;5099329;28;20311;-86
2021/11/29 03:06:55;;;;;;;10.53;9.40;;;2.70;99.90;;;;;;5101473;28;20732;-86
2021/11/29 03:09:23;;;;;;;11.50;9.23;;;2.60;99.90;;;;;;5103261;28;20206;-87
2021/11/29 03:11:49;;;;;;;12.40;9.47;;;2.70;99.90;;;;;;5097604;28;20222;-86
2021/11/29 03:14:17;;;;;;;9.20;8.33;;;2.80;99.90;;;;;;5095808;28;20178;-87
2021/11/29 03:16:43;;;;;;;11.27;10.17;;;2.90;99.90;;;;;;5101914;28;20183;-86
2021/11/29 03:19:09;;;;;;;10.17;9.10;;;2.90;99.90;;;;;;5102375;28;20217;-86
2021/11/29 03:21:35;;;;;;;10.20;9.10;;;2.90;99.90;;;;;;5092119;28;20580;-86
2021/11/29 03:24:03;;;;;;;10.63;9.53;;;3.00;99.70;;;;;;5095506;28;20198;-86
2021/11/29 03:26:31;;;;;;;10.67;8.63;;;2.90;99.90;;;;;;5095182;28;20227;-87
2021/11/29 03:29:09;;;;;;;9.97;8.97;;;2.90;99.50;;;;;;5098226;28;20195;-86
2021/11/29 03:31:35;;;;;;;10.17;8.83;;;2.80;99.90;;;;;;5091285;28;20210;-86
2021/11/29 03:34:04;;;;;;;10.40;9.40;;;2.80;99.90;;;;;;5112202;28;20266;-87
2021/11/29 03:36:36;;;;;;;10.07;9.03;;;2.90;99.70;;;;;;5095348;28;20210;-86
2021/11/29 03:39:06;;;;;;;10.13;9.13;;;2.90;99.60;;;;;;5082868;28;20314;-86
2021/11/29 03:41:32;;;;;;;10.70;9.40;;;2.90;99.50;;;;;;5095726;28;20211;-86
2021/11/29 03:43:57;;;;;;;9.97;8.97;;;2.90;99.80;;;;;;5103949;28;20225;-87
2021/11/29 03:46:23;;;;;;;9.97;8.97;;;2.90;99.90;;;;;;5110302;28;20262;-87
2021/11/29 03:48:49;;;;;;;10.73;9.47;;;3.00;99.20;;;;;;5103674;28;20251;-86
2021/11/29 03:51:15;;;;;;;10.73;9.63;;;3.00;99.30;;;;;;5099592;28;20211;-86
2021/11/29 03:53:41;;;;;;;10.70;9.60;;;3.00;99.40;;;;;;5096858;28;20191;-86
2021/11/29 03:56:07;;;;;;;11.73;9.77;;;3.00;99.30;;;;;;5072227;28;20197;-86
2021/11/29 03:58:33;;;;;;;11.20;10.10;;;3.00;99.70;;;;;;5099879;28;20600;-86
2021/11/29 04:00:58;;;;;;;11.03;9.93;;;3.00;99.40;;;;;;5091287;28;20226;-86
2021/11/29 04:03:24;;;;;;;11.67;10.33;;;2.90;99.30;;;;;;5098723;28;20202;-86
2021/11/29 04:05:50;;;;;;;11.70;9.97;;;2.70;99.90;;;;;;5095460;28;20198;-86
2021/11/29 04:08:16;;;;;;;11.30;9.93;;;2.60;99.90;;;;;;5098015;28;20723;-86
2021/11/29 04:10:42;;;;;;;12.17;10.97;;;2.50;99.90;;;;;;5094297;28;20228;-86
2021/11/29 04:13:08;;;;;;;11.93;10.63;;;2.40;99.90;;;;;;5093335;28;20264;-86
2021/11/29 04:15:33;;;;;;;13.50;11.33;;;2.30;99.90;;;;;;5097458;28;20187;-86
2021/11/29 04:17:59;;;;;;;11.53;10.33;;;2.30;99.90;;;;;;5092484;28;20209;-86
2021/11/29 04:20:25;;;;;;;11.20;10.00;;;2.20;99.90;;;;;;5094097;28;20211;-86
2021/11/29 04:22:51;;;;;;;10.67;9.30;;;2.30;99.90;;;;;;5080387;28;20191;-86
2021/11/29 04:25:22;;;;;;;11.47;9.33;;;2.40;99.90;;;;;;5094266;28;20281;-86
2021/11/29 04:27:48;;;;;;;10.20;9.20;;;2.60;99.90;;;;;;5095885;28;20211;-86
2021/11/29 04:30:22;;;;;;;12.70;10.60;;;2.60;99.90;;;;;;5095819;28;20203;-86
2021/11/29 04:32:51;;;;;;;12.33;9.90;;;2.60;99.90;;;;;;5095108;28;20534;-86
2021/11/29 04:35:17;;;;;;;11.57;10.17;;;2.50;99.90;;;;;;5095296;28;20748;-87
2021/11/29 04:37:43;;;;;;;11.17;9.97;;;2.60;99.90;;;;;;5094851;28;20266;-86
2021/11/29 04:40:10;;;;;;;10.17;8.80;;;2.70;99.90;;;;;;5098378;28;20612;-86
2021/11/29 04:42:36;;;;;;;12.40;10.03;;;2.80;99.90;;;;;;5094510;28;20186;-86
2021/11/29 04:45:04;;;;;;;11.17;9.60;;;2.90;99.90;;;;;;5098066;28;20690;-86
2021/11/29 04:47:30;;;;;;;10.40;9.40;;;3.10;99.50;;;;;;5083376;28;20197;-86
2021/11/29 04:49:56;;;;;;;9.73;8.83;;;3.10;99.20;;;;;;5076289;28;20203;-86
2021/11/29 04:52:22;;;;;;;10.60;8.47;;;3.20;98.80;;;;;;5074408;28;20251;-86
2021/11/29 04:54:49;;;;;;;10.67;8.93;;;3.30;98.70;;;;;;5097771;28;20266;-86
2021/11/29 04:57:14;;;;;;;9.53;8.53;;;3.30;98.50;;;;;;5095166;28;20602;-86
2021/11/29 04:59:40;;;;;;;10.07;8.93;;;3.30;98.40;;;;;;5093364;28;20187;-86
2021/11/29 05:02:06;;;;;;;9.30;8.30;;;3.20;98.10;;;;;;5094967;28;20595;-86
2021/11/29 05:04:32;;;;;;;9.83;8.73;;;3.20;98.30;;;;;;5096183;28;20183;-86
2021/11/29 05:06:58;;;;;;;10.53;9.43;;;3.30;97.90;;;;;;5091631;28;20217;-86
2021/11/29 05:09:24;;;;;;;11.63;9.90;;;3.20;97.20;;;;;;5061737;28;20658;-86
2021/11/29 05:11:50;;;;;;;13.33;10.80;;;3.10;97.70;;;;;;5097800;28;20219;-86
2021/11/29 05:14:16;;;;;;;11.87;10.60;;;2.90;98.50;;;;;;5092031;28;20198;-87
2021/11/29 05:16:43;;;;;;;16.80;11.03;;;2.70;99.90;;;;;;5095826;28;20218;-86
2021/11/29 05:19:10;;;;;;;13.00;10.77;;;2.30;99.90;;;;;;5099445;28;20632;-86
2021/11/29 05:21:37;;;;;;;13.37;10.77;;;2.20;99.90;;;;;;5078475;28;20233;-86
2021/11/29 05:24:04;;;;;;;14.63;12.07;;;2.10;99.90;;;;;;5097661;28;20214;-86
2021/11/29 05:26:30;;;;;;;15.13;12.00;;;1.90;99.90;;;;;;5097527;28;20201;-86
2021/11/29 05:28:57;;;;;;;13.50;11.60;;;1.90;99.90;;;;;;5099065;28;20198;-86
2021/11/29 05:31:24;;;;;;;13.63;11.37;;;2.00;99.90;;;;;;5090408;28;20210;-86
2021/11/29 05:33:50;;;;;;;14.97;11.67;;;2.00;99.90;;;;;;5071189;28;20206;-86
2021/11/29 05:36:17;;;;;;;13.87;11.27;;;2.00;99.90;;;;;;5093613;28;20194;-86
2021/11/29 05:38:44;;;;;;;13.27;11.13;;;2.00;99.90;;;;;;5097678;28;20182;-86
2021/11/29 05:41:09;;;;;;;13.37;11.87;;;2.00;99.90;;;;;;5099191;28;20583;-86
2021/11/29 05:43:35;;;;;;;15.47;11.23;;;1.90;99.90;;;;;;5090737;28;20201;-86
2021/11/29 05:46:01;;;;;;;15.90;12.40;;;2.00;99.90;;;;;;5090156;28;20201;-86
2021/11/29 05:48:29;;;;;;;13.60;10.80;;;1.90;99.90;;;;;;5086191;28;20941;-86
2021/11/29 05:51:00;;;;;;;15.97;13.37;;;1.90;99.90;;;;;;5089808;28;20203;-86
2021/11/29 05:53:26;;;;;;;14.13;12.63;;;2.00;99.90;;;;;;5089390;28;20189;-86
2021/11/29 05:55:53;;;;;;;15.87;14.17;;;2.20;99.90;;;;;;5088785;28;20199;-86
2021/11/29 05:58:19;;;;;;;12.47;11.17;;;2.20;99.90;;;;;;5091787;28;20190;-86
2021/11/29 06:00:45;;;;;;;14.90;11.70;;;2.20;99.90;;;;;;5077475;28;20395;-86
2021/11/29 06:03:10;;;;;;;11.47;10.27;;;2.20;99.90;;;;;;5091140;28;20228;-86
2021/11/29 06:05:36;;;;;;;15.70;11.77;;;2.30;99.90;;;;;;5088890;28;20175;-88
2021/11/29 06:08:02;;;;;;;14.50;11.40;;;2.20;99.90;;;;;;5095419;28;20273;-88
2021/11/29 06:10:29;;;;;;;12.63;10.57;;;2.10;99.90;;;;;;5076990;28;20293;-88
2021/11/29 06:12:54;;;;;;;12.70;10.93;;;2.10;99.90;;;;;;5068133;28;20670;-88
2021/11/29 06:15:20;;;;;;;12.43;10.43;;;2.20;99.90;;;;;;5091547;28;20218;-88
2021/11/29 06:17:46;;;;;;;12.83;10.33;;;2.20;99.90;;;;;;5086933;28;20219;-88
2021/11/29 06:20:19;;;;;;;12.50;10.80;;;2.30;99.90;;;;;;5092344;28;20195;-88
2021/11/29 06:22:46;;;;;;;11.57;10.37;;;2.40;99.70;;;;;;5086265;28;20502;-88
2021/11/29 06:25:12;;;;;;;12.47;10.40;;;2.40;99.40;;;;;;5082336;28;20202;-89
2021/11/29 06:27:37;;;;;;;13.90;10.53;;;2.50;99.30;;;;;;5104510;28;20199;-88
2021/11/29 06:30:04;;;;;;;13.23;10.67;;;2.50;99.10;;;;;;5110653;28;20207;-88
2021/11/29 06:32:29;;;;;;;10.87;9.77;;;2.60;98.40;;;;;;5076484;28;20305;-89
2021/11/29 06:34:55;;;;;;;13.80;12.07;;;2.50;97.60;;;;;;5089578;28;20280;-87
2021/11/29 06:37:25;;;;;;;12.40;11.07;;;2.40;98.40;;;;;;5084264;28;20195;-88
2021/11/29 06:39:51;;;;;;;12.63;10.93;;;2.40;98.80;;;;;;5088706;28;20650;-88
2021/11/29 06:42:17;;;;;;;12.90;10.53;;;2.40;98.40;;;;;;5074000;28;20213;-88
2021/11/29 06:44:43;;;;;;;13.53;10.03;;;2.40;98.70;;;;;;5089088;28;20574;-88
2021/11/29 06:47:08;;;;;;;13.83;10.33;;;2.60;98.30;;;;;;5101748;28;20220;-89
2021/11/29 06:49:34;;;;;;;13.57;10.47;;;2.60;97.70;;;;;;5091811;28;20190;-89
2021/11/29 06:52:04;;;;;;;11.87;10.27;;;2.50;97.60;;;;;;5086521;28;20218;-88
2021/11/29 06:54:33;;;;;;;12.70;10.73;;;2.60;97.40;;;;;;5071661;28;20591;-88
2021/11/29 06:56:59;;;;;;;13.83;11.37;;;2.60;97.00;;;;;;5091666;28;20186;-88
2021/11/29 06:59:25;;;;;;;12.27;10.53;;;2.50;96.70;;;;;;5092628;28;20187;-88
2021/11/29 07:01:51;;;;;;;13.50;10.87;;;2.50;97.20;;;;;;5091922;28;20226;-88
2021/11/29 07:04:19;;;;;;;14.07;11.17;;;2.40;97.10;;;;;;5090266;28;20190;-89
2021/11/29 07:06:45;;;;;;;15.00;10.47;;;2.50;97.20;;;;;;5088342;28;20580;-88
2021/11/29 07:09:12;;;;;;;14.10;10.83;;;2.50;97.20;;;;;;5066157;28;20218;-88
2021/11/29 07:11:38;;;;;;;12.37;10.57;;;2.50;96.90;;;;;;5087893;28;20214;-88
2021/11/29 07:14:05;;;;;;;14.97;12.73;;;2.40;96.70;;;;;;5090804;28;20269;-89
2021/11/29 07:16:36;;;;;;;14.70;11.90;;;2.20;96.40;;;;;;5083584;28;20188;-88
2021/11/29 07:19:02;;;;;;;16.17;12.27;;;2.00;98.20;;;;;;5071217;28;20202;-88
2021/11/29 07:21:28;;;;;;;15.97;13.20;;;1.90;98.40;;;;;;5083830;28;20695;-88
2021/11/29 07:23:54;;;;;;;16.87;14.00;;;1.70;99.70;;;;;;5068715;28;20207;-88
2021/11/29 07:26:21;;;;;;;16.30;13.20;;;1.50;99.90;;;;;;5067802;28;20195;-88
2021/11/29 07:28:47;;;;;;;16.43;12.77;;;1.40;99.90;;;;;;5073327;28;20229;-88
2021/11/29 07:31:14;;;;;;;16.70;13.67;;;1.40;99.90;;;;;;5087565;28;20287;-88
2021/11/29 07:33:39;;;;;;;16.73;13.27;;;1.30;99.90;;;;;;5088063;28;20190;-88
2021/11/29 07:36:05;;;;;;;16.03;12.63;;;1.40;99.90;;;;;;5090177;28;20192;-89
2021/11/29 07:38:31;;;;;;;14.80;12.37;;;1.50;99.90;;;;;;5074727;28;20209;-88
2021/11/29 07:40:57;;;;;;;17.27;13.87;;;1.40;99.90;;;;;;5085375;28;20226;-88
2021/11/29 07:43:22;;;;;;;18.07;12.83;;;1.30;99.90;;;;;;5070795;28;20195;-88
2021/11/29 07:45:48;;;;;;;17.30;13.23;;;1.30;99.90;;;;;;5095742;28;20243;-88
2021/11/29 07:48:15;;;;;;;19.53;14.03;;;1.30;99.90;;;;;;5090558;28;20199;-88
2021/11/29 07:50:42;;;;;;;19.73;14.13;;;1.20;99.90;;;;;;5093339;28;20211;-88
2021/11/29 07:53:08;;;;;;;20.10;15.13;;;1.20;99.90;;;;;;5096034;28;20191;-88
2021/11/29 07:55:35;;;;;;;20.70;14.20;;;1.10;99.90;;;;;;5075678;28;20195;-88
2021/11/29 07:58:03;;;;;;;20.07;16.10;;;1.10;99.90;;;;;;5092787;28;20260;-88
2021/11/29 08:00:31;;;;;;;21.77;15.53;;;1.00;99.90;;;;;;5069698;28;20226;-89
2021/11/29 08:03:00;;;;;;;23.13;17.27;;;1.00;99.90;;;;;;5114249;28;20255;-88
2021/11/29 08:05:27;;;;;;;20.10;15.67;;;0.90;99.90;;;;;;5101197;28;20224;-88
2021/11/29 08:07:54;;;;;;;22.77;16.90;;;0.90;99.90;;;;;;5092285;28;20207;-88
2021/11/29 08:10:21;;;;;;;22.30;16.03;;;0.90;99.90;;;;;;5076438;28;20191;-88
2021/11/29 08:12:47;;;;;;;21.93;14.83;;;1.00;99.90;;;;;;5070682;28;20215;-88
2021/11/29 08:15:13;;;;;;;18.90;14.77;;;1.00;99.90;;;;;;5090428;28;20214;-88
2021/11/29 08:17:39;;;;;;;19.53;14.83;;;1.20;99.90;;;;;;5089316;28;20274;-88
2021/11/29 08:20:07;;;;;;;23.83;15.70;;;1.20;99.90;;;;;;5088673;28;20241;-89
2021/11/29 08:22:32;;;;;;;19.90;14.83;;;1.30;99.90;;;;;;5088624;28;20883;-88
2021/11/29 08:24:59;;;;;;;17.03;13.63;;;1.30;99.90;;;;;;5110021;28;20198;-88
2021/11/29 08:27:26;;;;;;;21.27;15.17;;;1.50;99.90;;;;;;5086113;28;20206;-88
2021/11/29 08:29:52;;;;;;;18.03;13.87;;;1.50;99.90;;;;;;5091310;28;20210;-88
2021/11/29 08:32:18;;;;;;;19.43;13.60;;;1.70;99.90;;;;;;5076115;28;20225;-87
2021/11/29 08:34:44;;;;;;;19.50;13.10;;;1.70;99.90;;;;;;5091380;28;20190;-88
2021/11/29 08:37:11;;;;;;;16.40;11.77;;;1.80;99.90;;;;;;5078506;28;20662;-88
2021/11/29 08:39:38;;;;;;;15.20;11.83;;;1.80;99.90;;;;;;5088618;28;20187;-88
2021/11/29 08:42:04;;;;;;;16.77;12.10;;;1.80;99.90;;;;;;5094132;28;20214;-88
2021/11/29 08:44:30;;;;;;;15.97;11.57;;;1.80;99.90;;;;;;5082145;28;20329;-88
2021/11/29 08:46:56;;;;;;;14.93;11.13;;;1.80;99.90;;;;;;5091290;28;20200;-88
2021/11/29 08:49:24;;;;;;;16.13;10.37;;;1.90;99.90;;;;;;5096572;28;20184;-88
2021/11/29 08:51:50;;;;;;;13.50;10.60;;;1.80;99.90;;;;;;5095913;28;20222;-88
2021/11/29 08:54:17;;;;;;;13.33;9.77;;;1.70;99.90;;;;;;5092219;28;20198;-88
2021/11/29 08:56:46;;;;;;;12.77;9.37;;;1.70;99.90;;;;;;5055846;28;20195;-88
2021/11/29 08:59:12;;;;;;;12.77;9.23;;;1.80;99.90;;;;;;5094211;28;20539;-88
2021/11/29 09:01:38;;;;;;;14.60;9.83;;;1.90;99.90;;;;;;5074810;28;20240;-88
2021/11/29 09:04:03;;;;;;;14.47;9.47;;;2.00;99.90;;;;;;5114570;28;20277;-87
2021/11/29 09:06:29;;;;;;;10.33;8.20;;;2.00;99.90;;;;;;5103696;28;20585;-87
2021/11/29 09:08:55;;;;;;;13.67;10.50;;;1.80;99.90;;;;;;5095747;28;20182;-88
2021/11/29 09:11:21;;;;;;;14.70;9.67;;;1.80;99.90;;;;;;5111319;28;20207;-88
2021/11/29 09:13:47;;;;;;;14.47;10.00;;;2.00;99.90;;;;;;5102299;28;20250;-88
2021/11/29 09:16:16;;;;;;;14.50;9.40;;;2.10;99.90;;;;;;5095612;28;20191;-88
2021/11/29 09:18:43;;;;;;;16.67;9.70;;;1.90;99.90;;;;;;5095058;28;20197;-88
2021/11/29 09:21:11;;;;;;;12.87;8.73;;;1.90;99.90;;;;;;5094602;28;20261;-88
2021/11/29 09:23:38;;;;;;;13.03;9.77;;;2.00;99.90;;;;;;5091506;28;20263;-88
2021/11/29 09:26:04;;;;;;;12.27;9.03;;;1.90;99.90;;;;;;5095182;28;20208;-88
2021/11/29 09:28:30;;;;;;;12.40;9.10;;;1.90;99.90;;;;;;5106787;28;20179;-88
2021/11/29 09:30:57;;;;;;;12.80;8.73;;;2.00;99.90;;;;;;5089154;28;20264;-89
2021/11/29 09:33:23;;;;;;;10.60;7.80;;;2.00;99.90;;;;;;5107825;28;20182;-89
2021/11/29 09:35:50;;;;;;;12.60;9.17;;;2.00;99.90;;;;;;5100797;28;20206;-88
2021/11/29 09:38:16;;;;;;;10.20;7.80;;;2.00;99.90;;;;;;5094892;28;20606;-88
2021/11/29 09:40:43;;;;;;;10.77;8.53;;;2.10;99.80;;;;;;5086073;28;20198;-89
2021/11/29 09:43:13;;;;;;;12.30;7.93;;;2.10;99.90;;;;;;5089664;28;20289;-88
2021/11/29 09:45:43;;;;;;;10.03;7.80;;;2.30;98.80;;;;;;5090357;28;20191;-89
2021/11/29 09:48:10;;;;;;;10.00;7.67;;;2.40;98.70;;;;;;5105319;28;20178;-89
2021/11/29 09:50:40;;;;;;;12.37;7.80;;;2.60;97.80;;;;;;5104571;28;20558;-88
2021/11/29 09:53:07;;;;;;;15.13;8.07;;;2.60;97.60;;;;;;5083085;28;20202;-88
2021/11/29 09:55:33;;;;;;;9.03;7.30;;;2.60;98.70;;;;;;5076318;28;20711;-88
2021/11/29 09:57:59;;;;;;;9.80;7.17;;;2.60;97.30;;;;;;5096592;28;20263;-89
2021/11/29 10:00:32;;;;;;;8.83;7.37;;;2.60;95.70;;;;;;5090515;28;20226;-88
2021/11/29 10:02:58;;;;;;;7.03;6.33;;;2.70;96.10;;;;;;5095541;28;20190;-88
2021/11/29 10:05:25;;;;;;;8.23;6.77;;;2.50;94.70;;;;;;5069849;28;20221;-88
2021/11/29 10:07:53;;;;;;;10.63;7.90;;;2.70;95.00;;;;;;5094808;28;20199;-88
2021/11/29 10:10:24;;;;;;;10.97;7.87;;;2.50;97.30;;;;;;5100101;28;20305;-89
2021/11/29 10:12:57;;;;;;;9.80;7.13;;;2.50;99.50;;;;;;5076729;28;20268;-88
2021/11/29 10:15:31;;;;;;;8.33;6.73;;;2.40;99.80;;;;;;5096089;28;20182;-88
2021/11/29 10:18:12;;;;;;;8.97;6.93;;;2.60;95.70;;;;;;5088800;28;20182;-88
2021/11/29 10:20:53;;;;;;;9.67;5.80;;;2.60;96.10;;;;;;5091264;28;20326;-88
2021/11/29 10:23:24;;;;;;;8.73;7.00;;;2.70;93.40;;;;;;5091139;28;20694;-87
2021/11/29 10:25:49;;;;;;;8.90;6.77;;;2.80;93.00;;;;;;5083768;28;20191;-89
2021/11/29 10:28:42;;;;;;;9.20;6.23;;;2.70;94.30;;;;;;5099389;28;20195;-89
2021/11/29 10:31:29;;;;;;;9.20;6.73;;;2.80;92.00;;;;;;5072356;28;20235;-88
2021/11/29 10:34:03;;;;;;;9.60;6.87;;;2.90;91.60;;;;;;5092369;28;20249;-88
2021/11/29 10:36:40;;;;;;;9.33;6.50;;;2.80;91.30;;;;;;5087623;28;20237;-89
2021/11/29 10:39:10;;;;;;;6.63;5.53;;;2.80;92.20;;;;;;5086978;28;20282;-88
2021/11/29 10:41:41;;;;;;;8.43;6.50;;;2.90;91.20;;;;;;5097355;28;20207;-88
2021/11/29 10:44:11;;;;;;;7.60;5.90;;;3.00;92.20;;;;;;5076028;28;20190;-88
2021/11/29 10:46:41;;;;;;;8.40;6.30;;;3.00;90.30;;;;;;5090090;28;20191;-88
2021/11/29 10:49:12;;;;;;;8.83;5.90;;;2.90;90.50;;;;;;5091652;28;20195;-88
2021/11/29 10:51:40;;;;;;;9.57;5.93;;;3.00;90.70;;;;;;5090738;28;20297;-84
2021/11/29 10:54:09;;;;;;;8.70;6.80;;;2.90;89.80;;;;;;5091506;28;20199;-88
2021/11/29 10:56:37;;;;;;;6.97;6.23;;;2.90;90.50;;;;;;5086498;28;20308;-89
2021/11/29 10:59:07;;;;;;;6.70;5.93;;;2.90;90.20;;;;;;5089678;28;20183;-90
2021/11/29 11:01:43;;;;;;;9.23;6.30;;;2.80;89.80;;;;;;5092939;28;20638;-90
2021/11/29 11:04:30;;;;;;;10.63;6.77;;;2.90;90.80;;;;;;5085556;28;20191;-88
2021/11/29 11:07:05;;;;;;;8.90;6.97;;;2.70;91.20;;;;;;5071922;28;20205;-85
2021/11/29 11:09:34;;;;;;;11.70;6.07;;;2.90;91.40;;;;;;5095002;28;20194;-85
2021/11/29 11:12:02;;;;;;;10.77;6.67;;;2.80;92.70;;;;;;5076137;28;20223;-85
2021/11/29 11:14:53;;;;;;;7.50;6.70;;;2.70;92.40;;;;;;5094698;28;20344;-86
2021/11/29 11:17:25;;;;;;;10.53;6.20;;;2.90;90.70;;;;;;5091286;28;20238;-86
2021/11/29 11:19:56;;;;;;;11.73;6.63;;;2.90;89.80;;;;;;5091630;28;20183;-86
2021/11/29 11:22:30;;;;;;;9.07;6.93;;;2.90;90.40;;;;;;5094679;28;20245;-86
2021/11/29 11:24:58;;;;;;;8.83;6.13;;;3.00;90.20;;;;;;5096819;28;20273;-86
2021/11/29 11:27:27;;;;;;;10.13;9.13;;;3.00;88.80;;;;;;5086458;28;20196;-86
2021/11/29 11:30:14;;;;;;;10.90;6.23;;;3.00;88.30;;;;;;5074070;28;20609;-86
2021/11/29 11:32:46;;;;;;;7.20;6.07;;;3.00;89.20;;;;;;5092584;28;20196;-87
2021/11/29 11:35:18;;;;;;;10.30;5.97;;;3.00;87.90;;;;;;5091714;28;20264;-87
2021/11/29 11:37:46;;;;;;;10.10;6.60;;;3.00;88.40;;;;;;5092285;28;20206;-87
2021/11/29 11:40:26;;;;;;;9.13;7.27;;;2.90;90.30;;;;;;5091574;28;20194;-87
2021/11/29 11:42:53;;;;;;;9.30;6.70;;;2.90;89.40;;;;;;5087357;28;20579;-87
2021/11/29 11:45:22;;;;;;;9.80;7.77;;;3.10;89.80;;;;;;5110034;28;20230;-87
2021/11/29 11:47:49;;;;;;;10.17;7.17;;;2.90;91.40;;;;;;5108191;28;20210;-87
2021/11/29 11:50:20;;;;;;;9.00;7.27;;;2.90;90.20;;;;;;5090176;28;20203;-87
2021/11/29 11:52:46;;;;;;;10.37;7.37;;;3.00;89.10;;;;;;5106185;28;20195;-87
2021/11/29 11:55:16;;;;;;;9.27;6.73;;;3.00;88.90;;;;;;5113975;28;20202;-87
2021/11/29 11:57:47;;;;;;;6.93;6.23;;;3.00;89.90;;;;;;5106519;28;20185;-87
2021/11/29 12:00:30;;;;;;;6.90;6.07;;;2.90;88.80;;;;;;5073677;28;20183;-87
2021/11/29 12:03:08;;;;;;;7.03;6.33;;;2.90;89.00;;;;;;5092962;28;20249;-87
2021/11/29 12:05:55;;;;;;;8.33;6.60;;;2.90;89.50;;;;;;5093646;28;20194;-87
2021/11/29 12:08:38;;;;;;;10.43;6.43;;;2.90;90.10;;;;;;5086711;28;20225;-87
2021/11/29 12:11:26;;;;;;;7.87;6.77;;;2.90;89.50;;;;;;5078784;28;20701;-86
2021/11/29 12:14:20;;;;;;;9.83;6.83;;;2.90;88.20;;;;;;5072327;28;20190;-86
2021/11/29 12:16:49;;;;;;;7.50;5.93;;;3.00;90.40;;;;;;5091895;28;20204;-87
2021/11/29 12:19:27;;;;;;;8.80;6.57;;;3.10;90.40;;;;;;5092740;28;20596;-87
2021/11/29 12:21:55;;;;;;;10.37;5.83;;;3.00;89.80;;;;;;5092391;28;20301;-87
2021/11/29 12:24:27;;;;;;;7.73;6.30;;;3.00;89.40;;;;;;5094856;28;20562;-87
2021/11/29 12:27:01;;;;;;;8.87;6.90;;;2.90;90.80;;;;;;5066296;28;20183;-87
2021/11/29 12:29:27;;;;;;;7.80;6.27;;;2.90;91.60;;;;;;5071035;28;20246;-87
2021/11/29 12:32:23;;;;;;;9.57;6.23;;;3.10;90.30;;;;;;5087764;28;20227;-87
2021/11/29 12:34:55;;;;;;;6.20;5.60;;;3.20;87.30;;;;;;5083530;28;20206;-86
2021/11/29 12:37:26;;;;;;;9.73;5.87;;;3.20;88.10;;;;;;5088784;28;20218;-87
2021/11/29 12:40:14;;;;;;;7.73;6.00;;;3.00;90.00;;;;;;5075033;28;20200;-87
2021/11/29 12:42:39;;;;;;;5.13;4.63;;;3.10;89.60;;;;;;5080904;28;20392;-87
2021/11/29 12:45:08;;;;;;;6.23;5.63;;;3.30;87.90;;;;;;5087828;28;20199;-86
2021/11/29 12:47:44;;;;;;;6.43;5.27;;;3.30;87.30;;;;;;5091988;28;20191;-87
2021/11/29 12:50:29;;;;;;;8.57;5.83;;;3.30;88.00;;;;;;5095483;28;20187;-86
2021/11/29 12:53:20;;;;;;;7.73;5.07;;;3.10;87.60;;;;;;5093568;28;20757;-87